sensor_id;sensor_type;location;lat;lon;timestamp;P1;durP1;ratioP1;P2;durP2;ratioP2
51654;SDS011;37732;53.106;7.030;2022-09-09T00:03:43;13.25;;;8.05;;
51654;SDS011;37732;53.106;7.030;2022-09-09T00:06:23;15.57;;;10.40;;
51654;SDS011;37732;53.106;7.030;2022-09-09T00:17:24;21.10;;;15.15;;
51654;SDS011;37732;53.106;7.030;2022-09-09T00:20:13;9.85;;;8.48;;
51654;SDS011;37732;53.106;7.030;2022-09-09T00:22:40;15.65;;;11.32;;
51654;SDS011;37732;53.106;7.030;2022-09-09T00:25:28;17.83;;;14.02;;
51654;SDS011;37732;53.106;7.030;2022-09-09T00:28:02;14.55;;;11.52;;
51654;SDS011;37732;53.106;7.030;2022-09-09T00:30:36;19.02;;;15.10;;
51654;SDS011;37732;53.106;7.030;2022-09-09T00:33:09;17.02;;;13.70;;
51654;SDS011;37732;53.106;7.030;2022-09-09T00:35:42;17.58;;;12.13;;
51654;SDS011;37732;53.106;7.030;2022-09-09T00:40:58;22.58;;;16.42;;
51654;SDS011;37732;53.106;7.030;2022-09-09T00:43:37;17.15;;;13.95;;
51654;SDS011;37732;53.106;7.030;2022-09-09T00:46:06;15.05;;;11.95;;
51654;SDS011;37732;53.106;7.030;2022-09-09T01:00:15;13.20;;;11.75;;
51654;SDS011;37732;53.106;7.030;2022-09-09T01:11:03;22.85;;;16.48;;
51654;SDS011;37732;53.106;7.030;2022-09-09T01:13:33;12.55;;;10.27;;
51654;SDS011;37732;53.106;7.030;2022-09-09T01:16:03;16.90;;;13.45;;
51654;SDS011;37732;53.106;7.030;2022-09-09T01:18:52;19.17;;;16.17;;
51654;SDS011;37732;53.106;7.030;2022-09-09T01:21:33;15.88;;;11.98;;
51654;SDS011;37732;53.106;7.030;2022-09-09T01:26:35;13.15;;;11.02;;
51654;SDS011;37732;53.106;7.030;2022-09-09T01:29:07;12.25;;;9.75;;
51654;SDS011;37732;53.106;7.030;2022-09-09T01:31:36;13.40;;;11.90;;
51654;SDS011;37732;53.106;7.030;2022-09-09T01:34:14;14.93;;;11.65;;
51654;SDS011;37732;53.106;7.030;2022-09-09T01:36:44;13.40;;;10.90;;
51654;SDS011;37732;53.106;7.030;2022-09-09T01:39:26;14.05;;;11.38;;
51654;SDS011;37732;53.106;7.030;2022-09-09T01:41:53;16.17;;;11.13;;
51654;SDS011;37732;53.106;7.030;2022-09-09T01:44:20;14.63;;;12.00;;
51654;SDS011;37732;53.106;7.030;2022-09-09T01:46:47;16.33;;;13.38;;
51654;SDS011;37732;53.106;7.030;2022-09-09T01:49:12;14.90;;;11.50;;
51654;SDS011;37732;53.106;7.030;2022-09-09T01:51:39;13.77;;;11.10;;
51654;SDS011;37732;53.106;7.030;2022-09-09T01:54:07;17.00;;;13.48;;
51654;SDS011;37732;53.106;7.030;2022-09-09T01:56:39;19.45;;;10.38;;
51654;SDS011;37732;53.106;7.030;2022-09-09T01:59:48;12.45;;;9.40;;
51654;SDS011;37732;53.106;7.030;2022-09-09T02:02:26;13.68;;;9.45;;
51654;SDS011;37732;53.106;7.030;2022-09-09T02:07:41;13.20;;;10.15;;
51654;SDS011;37732;53.106;7.030;2022-09-09T02:10:24;14.13;;;10.20;;
51654;SDS011;37732;53.106;7.030;2022-09-09T02:13:01;13.43;;;11.02;;
51654;SDS011;37732;53.106;7.030;2022-09-09T02:15:43;13.55;;;11.63;;
51654;SDS011;37732;53.106;7.030;2022-09-09T02:18:18;13.88;;;10.00;;
51654;SDS011;37732;53.106;7.030;2022-09-09T02:20:57;16.42;;;10.07;;
51654;SDS011;37732;53.106;7.030;2022-09-09T02:23:24;16.33;;;11.02;;
51654;SDS011;37732;53.106;7.030;2022-09-09T02:25:50;15.57;;;11.80;;
51654;SDS011;37732;53.106;7.030;2022-09-09T02:28:18;18.30;;;13.77;;
51654;SDS011;37732;53.106;7.030;2022-09-09T02:30:46;12.75;;;10.25;;
51654;SDS011;37732;53.106;7.030;2022-09-09T02:33:20;17.05;;;10.63;;
51654;SDS011;37732;53.106;7.030;2022-09-09T02:35:49;18.63;;;12.00;;
51654;SDS011;37732;53.106;7.030;2022-09-09T02:38:17;15.88;;;11.48;;
51654;SDS011;37732;53.106;7.030;2022-09-09T02:40:46;14.35;;;11.50;;
51654;SDS011;37732;53.106;7.030;2022-09-09T02:43:13;15.70;;;12.63;;
51654;SDS011;37732;53.106;7.030;2022-09-09T02:45:42;12.68;;;10.80;;
51654;SDS011;37732;53.106;7.030;2022-09-09T02:51:04;14.00;;;10.40;;
51654;SDS011;37732;53.106;7.030;2022-09-09T02:56:35;15.07;;;10.85;;
51654;SDS011;37732;53.106;7.030;2022-09-09T02:59:05;16.33;;;12.27;;
51654;SDS011;37732;53.106;7.030;2022-09-09T03:01:31;14.68;;;11.00;;
51654;SDS011;37732;53.106;7.030;2022-09-09T03:03:57;12.70;;;9.32;;
51654;SDS011;37732;53.106;7.030;2022-09-09T03:06:22;13.68;;;8.75;;
51654;SDS011;37732;53.106;7.030;2022-09-09T03:08:48;13.90;;;9.27;;
51654;SDS011;37732;53.106;7.030;2022-09-09T03:11:15;14.70;;;10.35;;
51654;SDS011;37732;53.106;7.030;2022-09-09T03:13:41;12.82;;;10.27;;
51654;SDS011;37732;53.106;7.030;2022-09-09T03:16:07;16.08;;;11.75;;
51654;SDS011;37732;53.106;7.030;2022-09-09T03:18:33;14.90;;;10.55;;
51654;SDS011;37732;53.106;7.030;2022-09-09T03:20:59;15.02;;;9.70;;
51654;SDS011;37732;53.106;7.030;2022-09-09T03:23:25;16.23;;;9.10;;
51654;SDS011;37732;53.106;7.030;2022-09-09T03:25:51;17.00;;;10.88;;
51654;SDS011;37732;53.106;7.030;2022-09-09T03:28:19;15.30;;;11.38;;
51654;SDS011;37732;53.106;7.030;2022-09-09T03:30:45;19.17;;;11.90;;
51654;SDS011;37732;53.106;7.030;2022-09-09T03:33:11;12.82;;;9.80;;
51654;SDS011;37732;53.106;7.030;2022-09-09T03:35:37;15.85;;;9.73;;
51654;SDS011;37732;53.106;7.030;2022-09-09T03:38:04;12.75;;;9.20;;
51654;SDS011;37732;53.106;7.030;2022-09-09T03:40:30;17.38;;;8.57;;
51654;SDS011;37732;53.106;7.030;2022-09-09T03:42:56;16.58;;;9.90;;
51654;SDS011;37732;53.106;7.030;2022-09-09T03:45:21;14.05;;;9.77;;
51654;SDS011;37732;53.106;7.030;2022-09-09T03:47:47;18.33;;;10.85;;
51654;SDS011;37732;53.106;7.030;2022-09-09T03:50:12;14.27;;;9.18;;
51654;SDS011;37732;53.106;7.030;2022-09-09T03:52:38;13.10;;;9.52;;
51654;SDS011;37732;53.106;7.030;2022-09-09T03:55:06;15.48;;;11.23;;
51654;SDS011;37732;53.106;7.030;2022-09-09T03:57:32;18.98;;;11.50;;
51654;SDS011;37732;53.106;7.030;2022-09-09T04:00:00;20.75;;;12.43;;
51654;SDS011;37732;53.106;7.030;2022-09-09T04:02:30;16.92;;;12.15;;
51654;SDS011;37732;53.106;7.030;2022-09-09T04:04:55;18.08;;;9.85;;
51654;SDS011;37732;53.106;7.030;2022-09-09T04:07:21;14.90;;;10.32;;
51654;SDS011;37732;53.106;7.030;2022-09-09T04:09:47;14.70;;;11.15;;
51654;SDS011;37732;53.106;7.030;2022-09-09T04:12:13;10.85;;;8.65;;
51654;SDS011;37732;53.106;7.030;2022-09-09T04:14:45;16.27;;;12.30;;
51654;SDS011;37732;53.106;7.030;2022-09-09T04:17:10;11.77;;;9.60;;
51654;SDS011;37732;53.106;7.030;2022-09-09T04:19:36;12.02;;;9.57;;
51654;SDS011;37732;53.106;7.030;2022-09-09T04:22:01;16.92;;;13.20;;
51654;SDS011;37732;53.106;7.030;2022-09-09T04:24:27;14.32;;;10.98;;
51654;SDS011;37732;53.106;7.030;2022-09-09T04:26:58;16.65;;;11.25;;
51654;SDS011;37732;53.106;7.030;2022-09-09T04:29:27;18.00;;;12.98;;
51654;SDS011;37732;53.106;7.030;2022-09-09T04:31:53;16.52;;;13.25;;
51654;SDS011;37732;53.106;7.030;2022-09-09T04:34:21;11.93;;;10.05;;
51654;SDS011;37732;53.106;7.030;2022-09-09T04:36:47;16.23;;;12.60;;
51654;SDS011;37732;53.106;7.030;2022-09-09T04:39:12;15.02;;;11.27;;
51654;SDS011;37732;53.106;7.030;2022-09-09T04:41:39;17.73;;;12.82;;
51654;SDS011;37732;53.106;7.030;2022-09-09T04:44:05;16.83;;;11.52;;
51654;SDS011;37732;53.106;7.030;2022-09-09T04:46:30;17.80;;;11.82;;
51654;SDS011;37732;53.106;7.030;2022-09-09T04:48:56;16.75;;;11.70;;
51654;SDS011;37732;53.106;7.030;2022-09-09T04:51:22;12.13;;;9.90;;
51654;SDS011;37732;53.106;7.030;2022-09-09T04:53:47;15.35;;;11.70;;
51654;SDS011;37732;53.106;7.030;2022-09-09T04:56:15;14.30;;;10.23;;
51654;SDS011;37732;53.106;7.030;2022-09-09T04:58:41;11.13;;;8.57;;
51654;SDS011;37732;53.106;7.030;2022-09-09T05:01:18;15.38;;;11.02;;
51654;SDS011;37732;53.106;7.030;2022-09-09T05:03:45;13.93;;;9.30;;
51654;SDS011;37732;53.106;7.030;2022-09-09T05:06:14;10.23;;;8.05;;
51654;SDS011;37732;53.106;7.030;2022-09-09T05:08:42;10.98;;;8.30;;
51654;SDS011;37732;53.106;7.030;2022-09-09T05:11:15;12.70;;;8.70;;
51654;SDS011;37732;53.106;7.030;2022-09-09T05:13:52;9.40;;;6.85;;
51654;SDS011;37732;53.106;7.030;2022-09-09T05:16:19;12.23;;;7.95;;
51654;SDS011;37732;53.106;7.030;2022-09-09T05:18:46;10.05;;;7.40;;
51654;SDS011;37732;53.106;7.030;2022-09-09T05:21:12;11.00;;;8.43;;
51654;SDS011;37732;53.106;7.030;2022-09-09T05:23:39;8.98;;;7.07;;
51654;SDS011;37732;53.106;7.030;2022-09-09T05:26:05;12.50;;;8.95;;
51654;SDS011;37732;53.106;7.030;2022-09-09T05:28:33;8.73;;;5.90;;
51654;SDS011;37732;53.106;7.030;2022-09-09T05:31:01;12.93;;;9.60;;
51654;SDS011;37732;53.106;7.030;2022-09-09T05:33:30;11.15;;;7.03;;
51654;SDS011;37732;53.106;7.030;2022-09-09T05:36:00;12.50;;;8.20;;
51654;SDS011;37732;53.106;7.030;2022-09-09T05:38:31;14.63;;;9.23;;
51654;SDS011;37732;53.106;7.030;2022-09-09T05:40:58;8.27;;;6.32;;
51654;SDS011;37732;53.106;7.030;2022-09-09T05:43:24;11.57;;;7.30;;
51654;SDS011;37732;53.106;7.030;2022-09-09T05:46:02;12.55;;;7.70;;
51654;SDS011;37732;53.106;7.030;2022-09-09T05:48:33;11.10;;;8.38;;
51654;SDS011;37732;53.106;7.030;2022-09-09T05:51:04;11.10;;;7.25;;
51654;SDS011;37732;53.106;7.030;2022-09-09T05:53:34;13.88;;;8.73;;
51654;SDS011;37732;53.106;7.030;2022-09-09T05:56:00;12.75;;;8.85;;
51654;SDS011;37732;53.106;7.030;2022-09-09T05:58:34;12.10;;;8.93;;
51654;SDS011;37732;53.106;7.030;2022-09-09T06:01:19;11.13;;;7.75;;
51654;SDS011;37732;53.106;7.030;2022-09-09T06:03:47;11.82;;;8.38;;
51654;SDS011;37732;53.106;7.030;2022-09-09T06:06:15;11.38;;;8.40;;
51654;SDS011;37732;53.106;7.030;2022-09-09T06:08:43;11.13;;;8.05;;
51654;SDS011;37732;53.106;7.030;2022-09-09T06:11:11;13.48;;;8.73;;
51654;SDS011;37732;53.106;7.030;2022-09-09T06:13:40;9.50;;;7.30;;
51654;SDS011;37732;53.106;7.030;2022-09-09T06:16:13;16.67;;;9.05;;
51654;SDS011;37732;53.106;7.030;2022-09-09T06:18:42;9.95;;;7.70;;
51654;SDS011;37732;53.106;7.030;2022-09-09T06:21:11;10.48;;;7.93;;
51654;SDS011;37732;53.106;7.030;2022-09-09T06:23:43;11.10;;;8.40;;
51654;SDS011;37732;53.106;7.030;2022-09-09T06:26:20;11.38;;;7.57;;
51654;SDS011;37732;53.106;7.030;2022-09-09T06:28:48;10.05;;;7.78;;
51654;SDS011;37732;53.106;7.030;2022-09-09T06:31:16;11.43;;;8.90;;
51654;SDS011;37732;53.106;7.030;2022-09-09T06:34:04;11.93;;;7.78;;
51654;SDS011;37732;53.106;7.030;2022-09-09T06:36:32;10.25;;;8.82;;
51654;SDS011;37732;53.106;7.030;2022-09-09T06:38:59;10.02;;;7.47;;
51654;SDS011;37732;53.106;7.030;2022-09-09T06:41:27;13.32;;;9.15;;
51654;SDS011;37732;53.106;7.030;2022-09-09T06:43:54;11.15;;;8.10;;
51654;SDS011;37732;53.106;7.030;2022-09-09T06:46:23;11.43;;;8.20;;
51654;SDS011;37732;53.106;7.030;2022-09-09T06:48:58;12.27;;;8.77;;
51654;SDS011;37732;53.106;7.030;2022-09-09T06:51:29;10.77;;;8.75;;
51654;SDS011;37732;53.106;7.030;2022-09-09T06:53:58;10.18;;;7.68;;
51654;SDS011;37732;53.106;7.030;2022-09-09T06:56:28;8.98;;;8.07;;
51654;SDS011;37732;53.106;7.030;2022-09-09T06:59:03;10.13;;;7.90;;
51654;SDS011;37732;53.106;7.030;2022-09-09T07:01:34;10.02;;;7.88;;
51654;SDS011;37732;53.106;7.030;2022-09-09T07:04:07;10.10;;;7.20;;
51654;SDS011;37732;53.106;7.030;2022-09-09T07:06:40;10.77;;;8.18;;
51654;SDS011;37732;53.106;7.030;2022-09-09T07:09:20;9.70;;;7.20;;
51654;SDS011;37732;53.106;7.030;2022-09-09T07:11:47;9.98;;;7.50;;
51654;SDS011;37732;53.106;7.030;2022-09-09T07:14:18;9.48;;;7.10;;
51654;SDS011;37732;53.106;7.030;2022-09-09T07:17:02;8.13;;;7.00;;
51654;SDS011;37732;53.106;7.030;2022-09-09T07:19:28;11.82;;;8.18;;
51654;SDS011;37732;53.106;7.030;2022-09-09T07:21:53;8.90;;;6.93;;
51654;SDS011;37732;53.106;7.030;2022-09-09T07:24:19;9.98;;;7.55;;
51654;SDS011;37732;53.106;7.030;2022-09-09T07:26:45;10.25;;;7.10;;
51654;SDS011;37732;53.106;7.030;2022-09-09T07:29:11;9.43;;;6.38;;
51654;SDS011;37732;53.106;7.030;2022-09-09T07:31:39;9.25;;;6.38;;
51654;SDS011;37732;53.106;7.030;2022-09-09T07:34:05;7.90;;;5.63;;
51654;SDS011;37732;53.106;7.030;2022-09-09T07:36:32;10.25;;;7.60;;
51654;SDS011;37732;53.106;7.030;2022-09-09T07:39:06;8.23;;;5.63;;
51654;SDS011;37732;53.106;7.030;2022-09-09T07:41:38;8.75;;;6.63;;
51654;SDS011;37732;53.106;7.030;2022-09-09T07:44:09;10.68;;;6.50;;
51654;SDS011;37732;53.106;7.030;2022-09-09T07:46:42;8.88;;;6.50;;
51654;SDS011;37732;53.106;7.030;2022-09-09T07:49:10;9.23;;;6.35;;
51654;SDS011;37732;53.106;7.030;2022-09-09T07:51:40;8.05;;;6.05;;
51654;SDS011;37732;53.106;7.030;2022-09-09T07:54:09;9.55;;;6.88;;
51654;SDS011;37732;53.106;7.030;2022-09-09T07:56:36;8.45;;;5.90;;
51654;SDS011;37732;53.106;7.030;2022-09-09T07:59:03;9.13;;;6.63;;
51654;SDS011;37732;53.106;7.030;2022-09-09T08:01:32;8.63;;;6.25;;
51654;SDS011;37732;53.106;7.030;2022-09-09T08:04:12;7.18;;;5.93;;
51654;SDS011;37732;53.106;7.030;2022-09-09T08:06:49;9.20;;;5.53;;
51654;SDS011;37732;53.106;7.030;2022-09-09T08:09:18;8.98;;;5.88;;
51654;SDS011;37732;53.106;7.030;2022-09-09T08:11:44;10.10;;;6.28;;
51654;SDS011;37732;53.106;7.030;2022-09-09T08:14:10;8.65;;;6.43;;
51654;SDS011;37732;53.106;7.030;2022-09-09T08:16:38;9.18;;;5.10;;
51654;SDS011;37732;53.106;7.030;2022-09-09T08:19:05;7.88;;;5.32;;
51654;SDS011;37732;53.106;7.030;2022-09-09T08:21:32;10.77;;;5.35;;
51654;SDS011;37732;53.106;7.030;2022-09-09T08:24:00;7.38;;;5.50;;
51654;SDS011;37732;53.106;7.030;2022-09-09T08:26:27;7.00;;;5.15;;
51654;SDS011;37732;53.106;7.030;2022-09-09T08:28:56;8.48;;;5.13;;
51654;SDS011;37732;53.106;7.030;2022-09-09T08:31:33;9.70;;;5.53;;
51654;SDS011;37732;53.106;7.030;2022-09-09T08:34:02;7.35;;;5.13;;
51654;SDS011;37732;53.106;7.030;2022-09-09T08:36:30;9.20;;;5.30;;
51654;SDS011;37732;53.106;7.030;2022-09-09T08:38:58;7.68;;;5.50;;
51654;SDS011;37732;53.106;7.030;2022-09-09T08:49:49;6.85;;;4.63;;
51654;SDS011;37732;53.106;7.030;2022-09-09T08:55:35;8.48;;;5.50;;
51654;SDS011;37732;53.106;7.030;2022-09-09T08:58:23;8.05;;;5.35;;
51654;SDS011;37732;53.106;7.030;2022-09-09T09:06:24;8.18;;;5.03;;
51654;SDS011;37732;53.106;7.030;2022-09-09T09:11:49;7.47;;;5.03;;
51654;SDS011;37732;53.106;7.030;2022-09-09T09:14:19;10.68;;;5.22;;
51654;SDS011;37732;53.106;7.030;2022-09-09T09:19:31;9.02;;;4.75;;
51654;SDS011;37732;53.106;7.030;2022-09-09T09:24:50;8.02;;;5.20;;
51654;SDS011;37732;53.106;7.030;2022-09-09T09:27:35;8.13;;;4.50;;
51654;SDS011;37732;53.106;7.030;2022-09-09T09:30:14;9.70;;;5.05;;
51654;SDS011;37732;53.106;7.030;2022-09-09T09:33:47;8.15;;;5.15;;
51654;SDS011;37732;53.106;7.030;2022-09-09T09:35:57;7.30;;;4.47;;
51654;SDS011;37732;53.106;7.030;2022-09-09T09:38:25;10.48;;;5.10;;
51654;SDS011;37732;53.106;7.030;2022-09-09T09:40:56;7.32;;;4.95;;
51654;SDS011;37732;53.106;7.030;2022-09-09T09:43:27;7.53;;;4.72;;
51654;SDS011;37732;53.106;7.030;2022-09-09T09:45:54;8.45;;;5.03;;
51654;SDS011;37732;53.106;7.030;2022-09-09T09:48:20;7.60;;;4.38;;
51654;SDS011;37732;53.106;7.030;2022-09-09T09:50:53;11.23;;;5.72;;
51654;SDS011;37732;53.106;7.030;2022-09-09T09:53:31;7.78;;;5.45;;
51654;SDS011;37732;53.106;7.030;2022-09-09T10:01:02;10.52;;;5.70;;
51654;SDS011;37732;53.106;7.030;2022-09-09T10:03:31;10.30;;;5.15;;
51654;SDS011;37732;53.106;7.030;2022-09-09T10:06:02;9.93;;;5.20;;
51654;SDS011;37732;53.106;7.030;2022-09-09T10:08:28;10.98;;;5.93;;
51654;SDS011;37732;53.106;7.030;2022-09-09T10:19:04;8.27;;;3.28;;
51654;SDS011;37732;53.106;7.030;2022-09-09T10:27:25;10.15;;;3.03;;
51654;SDS011;37732;53.106;7.030;2022-09-09T10:35:27;11.38;;;3.97;;
51654;SDS011;37732;53.106;7.030;2022-09-09T10:40:38;9.88;;;3.45;;
51654;SDS011;37732;53.106;7.030;2022-09-09T10:46:04;9.25;;;3.40;;
51654;SDS011;37732;53.106;7.030;2022-09-09T10:56:18;9.60;;;3.20;;
51654;SDS011;37732;53.106;7.030;2022-09-09T10:58:53;8.05;;;2.85;;
51654;SDS011;37732;53.106;7.030;2022-09-09T11:01:40;8.77;;;3.25;;
51654;SDS011;37732;53.106;7.030;2022-09-09T11:04:23;7.57;;;3.15;;
51654;SDS011;37732;53.106;7.030;2022-09-09T11:06:56;10.27;;;3.20;;
51654;SDS011;37732;53.106;7.030;2022-09-09T11:09:25;9.05;;;2.65;;
51654;SDS011;37732;53.106;7.030;2022-09-09T11:11:56;10.18;;;3.28;;
51654;SDS011;37732;53.106;7.030;2022-09-09T11:14:45;8.27;;;3.30;;
51654;SDS011;37732;53.106;7.030;2022-09-09T11:17:49;5.72;;;2.58;;
51654;SDS011;37732;53.106;7.030;2022-09-09T11:20:19;7.25;;;2.72;;
51654;SDS011;37732;53.106;7.030;2022-09-09T11:22:48;6.00;;;2.50;;
51654;SDS011;37732;53.106;7.030;2022-09-09T11:25:40;8.73;;;2.42;;
51654;SDS011;37732;53.106;7.030;2022-09-09T11:36:34;6.95;;;2.50;;
51654;SDS011;37732;53.106;7.030;2022-09-09T11:42:15;8.73;;;2.50;;
51654;SDS011;37732;53.106;7.030;2022-09-09T11:44:43;6.53;;;2.63;;
51654;SDS011;37732;53.106;7.030;2022-09-09T11:49:51;7.85;;;3.15;;
51654;SDS011;37732;53.106;7.030;2022-09-09T11:52:22;6.03;;;2.70;;
51654;SDS011;37732;53.106;7.030;2022-09-09T11:54:50;6.40;;;2.80;;
51654;SDS011;37732;53.106;7.030;2022-09-09T11:57:24;5.60;;;2.22;;
51654;SDS011;37732;53.106;7.030;2022-09-09T11:59:59;6.60;;;2.53;;
51654;SDS011;37732;53.106;7.030;2022-09-09T12:02:26;7.38;;;2.75;;
51654;SDS011;37732;53.106;7.030;2022-09-09T12:05:01;11.05;;;3.13;;
51654;SDS011;37732;53.106;7.030;2022-09-09T12:12:33;5.22;;;2.13;;
51654;SDS011;37732;53.106;7.030;2022-09-09T12:15:03;10.25;;;3.15;;
51654;SDS011;37732;53.106;7.030;2022-09-09T12:17:49;5.45;;;2.20;;
51654;SDS011;37732;53.106;7.030;2022-09-09T12:20:18;6.07;;;2.20;;
51654;SDS011;37732;53.106;7.030;2022-09-09T12:25:21;8.82;;;2.35;;
51654;SDS011;37732;53.106;7.030;2022-09-09T12:30:39;5.68;;;2.05;;
51654;SDS011;37732;53.106;7.030;2022-09-09T12:33:10;6.53;;;1.58;;
51654;SDS011;37732;53.106;7.030;2022-09-09T12:35:38;5.53;;;2.05;;
51654;SDS011;37732;53.106;7.030;2022-09-09T12:38:06;5.78;;;1.90;;
51654;SDS011;37732;53.106;7.030;2022-09-09T12:40:53;7.47;;;2.53;;
51654;SDS011;37732;53.106;7.030;2022-09-09T12:43:23;3.38;;;2.00;;
51654;SDS011;37732;53.106;7.030;2022-09-09T12:45:51;5.32;;;2.17;;
51654;SDS011;37732;53.106;7.030;2022-09-09T12:48:25;6.70;;;2.15;;
51654;SDS011;37732;53.106;7.030;2022-09-09T12:50:56;7.75;;;2.22;;
51654;SDS011;37732;53.106;7.030;2022-09-09T12:56:28;4.53;;;2.08;;
51654;SDS011;37732;53.106;7.030;2022-09-09T12:58:48;8.85;;;2.03;;
51654;SDS011;37732;53.106;7.030;2022-09-09T13:01:30;5.28;;;2.15;;
51654;SDS011;37732;53.106;7.030;2022-09-09T13:03:58;7.78;;;2.05;;
51654;SDS011;37732;53.106;7.030;2022-09-09T13:06:28;4.35;;;1.67;;
51654;SDS011;37732;53.106;7.030;2022-09-09T13:08:56;3.80;;;1.75;;
51654;SDS011;37732;53.106;7.030;2022-09-09T13:13:56;6.20;;;1.70;;
51654;SDS011;37732;53.106;7.030;2022-09-09T13:16:24;3.17;;;1.50;;
51654;SDS011;37732;53.106;7.030;2022-09-09T13:18:56;4.80;;;1.58;;
51654;SDS011;37732;53.106;7.030;2022-09-09T13:24:30;4.28;;;1.70;;
51654;SDS011;37732;53.106;7.030;2022-09-09T13:26:58;6.10;;;2.35;;
51654;SDS011;37732;53.106;7.030;2022-09-09T13:29:29;6.70;;;1.77;;
51654;SDS011;37732;53.106;7.030;2022-09-09T13:32:06;4.13;;;1.60;;
51654;SDS011;37732;53.106;7.030;2022-09-09T13:34:49;3.60;;;2.00;;
51654;SDS011;37732;53.106;7.030;2022-09-09T13:37:29;7.07;;;1.95;;
51654;SDS011;37732;53.106;7.030;2022-09-09T13:40:02;4.32;;;1.88;;
51654;SDS011;37732;53.106;7.030;2022-09-09T13:42:31;4.35;;;2.03;;
51654;SDS011;37732;53.106;7.030;2022-09-09T13:45:00;5.72;;;1.67;;
51654;SDS011;37732;53.106;7.030;2022-09-09T13:47:28;6.38;;;2.10;;
51654;SDS011;37732;53.106;7.030;2022-09-09T13:49:54;4.75;;;1.48;;
51654;SDS011;37732;53.106;7.030;2022-09-09T13:52:20;6.22;;;1.45;;
51654;SDS011;37732;53.106;7.030;2022-09-09T13:54:50;2.70;;;1.10;;
51654;SDS011;37732;53.106;7.030;2022-09-09T13:57:18;4.53;;;1.05;;
51654;SDS011;37732;53.106;7.030;2022-09-09T13:59:50;6.07;;;1.40;;
51654;SDS011;37732;53.106;7.030;2022-09-09T14:02:16;2.10;;;1.05;;
51654;SDS011;37732;53.106;7.030;2022-09-09T14:04:43;3.33;;;1.40;;
51654;SDS011;37732;53.106;7.030;2022-09-09T14:07:12;2.10;;;1.20;;
51654;SDS011;37732;53.106;7.030;2022-09-09T14:09:40;3.95;;;1.38;;
51654;SDS011;37732;53.106;7.030;2022-09-09T14:12:08;4.70;;;1.38;;
51654;SDS011;37732;53.106;7.030;2022-09-09T14:14:40;3.13;;;1.10;;
51654;SDS011;37732;53.106;7.030;2022-09-09T14:17:07;4.95;;;1.65;;
51654;SDS011;37732;53.106;7.030;2022-09-09T14:19:32;4.70;;;1.70;;
51654;SDS011;37732;53.106;7.030;2022-09-09T14:21:58;6.75;;;1.77;;
51654;SDS011;37732;53.106;7.030;2022-09-09T14:24:24;7.60;;;2.30;;
51654;SDS011;37732;53.106;7.030;2022-09-09T14:26:50;5.82;;;1.77;;
51654;SDS011;37732;53.106;7.030;2022-09-09T14:29:16;7.18;;;2.03;;
51654;SDS011;37732;53.106;7.030;2022-09-09T14:31:41;8.05;;;1.88;;
51654;SDS011;37732;53.106;7.030;2022-09-09T14:34:07;9.35;;;2.30;;
51654;SDS011;37732;53.106;7.030;2022-09-09T14:36:34;8.57;;;2.90;;
51654;SDS011;37732;53.106;7.030;2022-09-09T14:39:00;3.50;;;1.70;;
51654;SDS011;37732;53.106;7.030;2022-09-09T14:41:26;6.63;;;3.08;;
51654;SDS011;37732;53.106;7.030;2022-09-09T14:43:54;4.55;;;2.20;;
51654;SDS011;37732;53.106;7.030;2022-09-09T14:46:20;4.63;;;2.13;;
51654;SDS011;37732;53.106;7.030;2022-09-09T14:48:45;6.20;;;2.10;;
51654;SDS011;37732;53.106;7.030;2022-09-09T14:51:16;5.18;;;2.55;;
51654;SDS011;37732;53.106;7.030;2022-09-09T14:53:47;6.60;;;2.50;;
51654;SDS011;37732;53.106;7.030;2022-09-09T14:56:14;9.60;;;2.13;;
51654;SDS011;37732;53.106;7.030;2022-09-09T14:58:42;4.15;;;1.83;;
51654;SDS011;37732;53.106;7.030;2022-09-09T15:01:09;4.70;;;2.00;;
51654;SDS011;37732;53.106;7.030;2022-09-09T15:03:37;6.57;;;2.08;;
51654;SDS011;37732;53.106;7.030;2022-09-09T15:06:07;3.50;;;1.48;;
51654;SDS011;37732;53.106;7.030;2022-09-09T15:08:35;5.50;;;2.10;;
51654;SDS011;37732;53.106;7.030;2022-09-09T15:11:02;5.57;;;2.00;;
51654;SDS011;37732;53.106;7.030;2022-09-09T15:13:29;4.72;;;2.25;;
51654;SDS011;37732;53.106;7.030;2022-09-09T15:15:55;8.02;;;2.10;;
51654;SDS011;37732;53.106;7.030;2022-09-09T15:18:23;7.35;;;2.20;;
51654;SDS011;37732;53.106;7.030;2022-09-09T15:20:48;8.15;;;2.17;;
51654;SDS011;37732;53.106;7.030;2022-09-09T15:23:14;6.03;;;2.45;;
51654;SDS011;37732;53.106;7.030;2022-09-09T15:25:51;4.43;;;1.70;;
51654;SDS011;37732;53.106;7.030;2022-09-09T15:28:21;4.45;;;1.38;;
51654;SDS011;37732;53.106;7.030;2022-09-09T15:30:51;3.95;;;1.33;;
51654;SDS011;37732;53.106;7.030;2022-09-09T15:33:25;2.70;;;1.10;;
51654;SDS011;37732;53.106;7.030;2022-09-09T15:35:51;2.05;;;0.98;;
51654;SDS011;37732;53.106;7.030;2022-09-09T15:38:16;1.70;;;0.88;;
51654;SDS011;37732;53.106;7.030;2022-09-09T15:40:42;2.45;;;0.63;;
51654;SDS011;37732;53.106;7.030;2022-09-09T15:43:08;2.47;;;0.93;;
51654;SDS011;37732;53.106;7.030;2022-09-09T15:45:39;1.67;;;0.88;;
51654;SDS011;37732;53.106;7.030;2022-09-09T15:48:04;1.77;;;0.65;;
51654;SDS011;37732;53.106;7.030;2022-09-09T15:50:30;0.60;;;0.60;;
51654;SDS011;37732;53.106;7.030;2022-09-09T15:52:56;1.52;;;0.98;;
51654;SDS011;37732;53.106;7.030;2022-09-09T15:55:23;0.98;;;0.70;;
51654;SDS011;37732;53.106;7.030;2022-09-09T15:57:51;2.10;;;0.90;;
51654;SDS011;37732;53.106;7.030;2022-09-09T16:00:18;3.00;;;1.10;;
51654;SDS011;37732;53.106;7.030;2022-09-09T16:02:46;2.65;;;1.10;;
51654;SDS011;37732;53.106;7.030;2022-09-09T16:05:12;2.05;;;1.10;;
51654;SDS011;37732;53.106;7.030;2022-09-09T16:07:37;2.25;;;1.20;;
51654;SDS011;37732;53.106;7.030;2022-09-09T16:10:04;1.80;;;1.00;;
51654;SDS011;37732;53.106;7.030;2022-09-09T16:12:30;2.20;;;1.20;;
51654;SDS011;37732;53.106;7.030;2022-09-09T16:14:56;3.30;;;1.30;;
51654;SDS011;37732;53.106;7.030;2022-09-09T16:17:22;2.00;;;1.27;;
51654;SDS011;37732;53.106;7.030;2022-09-09T16:19:47;3.92;;;1.05;;
51654;SDS011;37732;53.106;7.030;2022-09-09T16:22:13;1.60;;;1.15;;
51654;SDS011;37732;53.106;7.030;2022-09-09T16:24:40;2.35;;;1.30;;
51654;SDS011;37732;53.106;7.030;2022-09-09T16:27:06;5.82;;;1.52;;
51654;SDS011;37732;53.106;7.030;2022-09-09T16:29:32;2.72;;;1.10;;
51654;SDS011;37732;53.106;7.030;2022-09-09T16:31:57;4.00;;;1.20;;
51654;SDS011;37732;53.106;7.030;2022-09-09T16:34:25;4.90;;;1.20;;
51654;SDS011;37732;53.106;7.030;2022-09-09T16:36:51;2.58;;;1.10;;
51654;SDS011;37732;53.106;7.030;2022-09-09T16:39:18;4.63;;;1.80;;
51654;SDS011;37732;53.106;7.030;2022-09-09T16:41:45;2.85;;;1.30;;
51654;SDS011;37732;53.106;7.030;2022-09-09T16:44:13;5.70;;;1.58;;
51654;SDS011;37732;53.106;7.030;2022-09-09T16:46:40;4.13;;;1.30;;
51654;SDS011;37732;53.106;7.030;2022-09-09T16:49:08;3.45;;;1.30;;
51654;SDS011;37732;53.106;7.030;2022-09-09T16:51:36;3.10;;;1.38;;
51654;SDS011;37732;53.106;7.030;2022-09-09T16:54:05;2.83;;;1.63;;
51654;SDS011;37732;53.106;7.030;2022-09-09T16:56:33;2.15;;;1.10;;
51654;SDS011;37732;53.106;7.030;2022-09-09T16:59:02;2.47;;;1.63;;
51654;SDS011;37732;53.106;7.030;2022-09-09T17:01:34;5.03;;;1.75;;
51654;SDS011;37732;53.106;7.030;2022-09-09T17:04:04;5.72;;;1.67;;
51654;SDS011;37732;53.106;7.030;2022-09-09T17:06:32;3.53;;;1.65;;
51654;SDS011;37732;53.106;7.030;2022-09-09T17:09:07;3.28;;;1.73;;
51654;SDS011;37732;53.106;7.030;2022-09-09T17:11:36;2.85;;;1.30;;
51654;SDS011;37732;53.106;7.030;2022-09-09T17:14:02;3.95;;;1.70;;
51654;SDS011;37732;53.106;7.030;2022-09-09T17:16:29;3.88;;;1.70;;